Bern, Idaho
Current Conditions -  °F | °C
As of 12:55 AM on Monday 24 Nov 2014 (Local Time) from KAFO Reporting Station
Light Snow Light Snow  
Wind Chill: 21°   Ceiling: 500
Heat Index: 27°   Visibility: 1.5mi
Dew Point: 23°   Wind: 5mph
Humidity: 86%   Direction: 150°SSE
Pressure: 30.03"   Gusts: NA
Location:  42.34°N, 111.39°W
Report Text: KAFO 240755Z AUTO 15004KT 1 1/2SM -SN OVC005 M03/M05 A3003 RMK AO2
Loading
Personal Weather Stations






























Interactive Weather Map New forecast layout! Learn more

10-Day Weather Forecast

Advertisements
Track Severe Weather on mobile